createdAt,value
2022-09-20T00:01:13.995Z,65.03
2022-09-20T00:03:43.386Z,65.05
2022-09-20T00:06:12.791Z,64.90
2022-09-20T00:08:40.913Z,65.06
2022-09-20T00:11:11.538Z,64.95
2022-09-20T00:13:40.446Z,65.17
2022-09-20T00:16:11.284Z,65.15
2022-09-20T00:18:38.319Z,65.04
2022-09-20T00:21:05.695Z,65.02
2022-09-20T00:23:33.308Z,64.99
2022-09-20T00:26:04.867Z,65.02
2022-09-20T00:28:32.912Z,65.13
2022-09-20T00:30:59.737Z,65.06
2022-09-20T00:33:49.776Z,65.05
2022-09-20T00:36:16.873Z,65.14
2022-09-20T00:38:43.697Z,64.99
2022-09-20T00:41:11.283Z,64.97
2022-09-20T00:43:44.110Z,64.98
2022-09-20T00:46:43.161Z,65.06
2022-09-20T00:49:21.000Z,65.11
2022-09-20T00:51:53.158Z,65.05
2022-09-20T00:54:20.928Z,65.04
2022-09-20T00:56:48.923Z,64.96
2022-09-20T00:59:38.948Z,65.09
2022-09-20T01:02:05.821Z,64.94
2022-09-20T01:04:35.858Z,65.10
2022-09-20T01:07:05.959Z,65.14
2022-09-20T01:09:32.812Z,65.07
2022-09-20T01:12:04.032Z,65.04
2022-09-20T01:14:31.048Z,65.02
2022-09-20T01:17:02.879Z,65.00
2022-09-20T01:19:46.304Z,65.05
2022-09-20T01:22:35.551Z,65.14
2022-09-20T01:25:39.745Z,64.98
2022-09-20T01:28:06.820Z,65.08
2022-09-20T01:31:02.189Z,65.21
2022-09-20T01:33:40.681Z,65.14
2022-09-20T01:36:11.861Z,65.11
2022-09-20T01:38:48.248Z,65.08
2022-09-20T01:41:17.681Z,65.15
2022-09-20T01:43:58.068Z,65.16
2022-09-20T01:46:36.433Z,64.97
2022-09-20T01:49:29.821Z,65.17
2022-09-20T01:52:23.973Z,65.15
2022-09-20T01:55:25.880Z,64.99
2022-09-20T01:58:34.811Z,65.08
2022-09-20T02:01:20.448Z,65.15
2022-09-20T02:04:02.392Z,65.10
2022-09-20T02:06:41.462Z,65.18
2022-09-20T02:09:11.329Z,65.19
2022-09-20T02:12:15.101Z,65.12
2022-09-20T02:14:50.736Z,65.20
2022-09-20T02:17:22.319Z,65.30
2022-09-20T02:19:59.746Z,65.31
2022-09-20T02:23:00.702Z,65.36
2022-09-20T02:25:42.884Z,65.26
2022-09-20T02:28:38.609Z,65.24
2022-09-20T02:31:33.525Z,65.30
2022-09-20T02:34:21.647Z,65.31
2022-09-20T02:37:03.697Z,65.26
2022-09-20T02:39:59.666Z,65.25
2022-09-20T02:42:52.851Z,65.40
2022-09-20T02:45:59.118Z,65.22
2022-09-20T02:48:42.978Z,65.30
2022-09-20T02:51:18.114Z,65.38
2022-09-20T02:54:06.696Z,65.40
2022-09-20T02:56:59.433Z,65.22
2022-09-20T03:00:01.525Z,65.16
2022-09-20T03:02:57.872Z,65.19
2022-09-20T03:06:03.160Z,65.31
2022-09-20T03:08:54.805Z,65.28
2022-09-20T03:11:31.036Z,65.27
2022-09-20T03:14:03.595Z,65.46
2022-09-20T03:16:48.710Z,65.46
2022-09-20T03:19:40.181Z,65.32
2022-09-20T03:22:34.575Z,65.43
2022-09-20T03:25:39.742Z,65.38
2022-09-20T03:28:21.786Z,65.43
2022-09-20T03:31:21.167Z,65.49
2022-09-20T03:34:12.119Z,65.44
2022-09-20T03:36:52.306Z,65.36
2022-09-20T03:39:34.537Z,65.28
2022-09-20T03:42:30.762Z,65.35
2022-09-20T03:45:35.591Z,65.43
2022-09-20T03:48:34.501Z,65.49
2022-09-20T03:51:08.968Z,65.30
2022-09-20T03:54:23.335Z,65.50
2022-09-20T03:57:06.660Z,65.33
2022-09-20T04:00:14.934Z,65.28
2022-09-20T04:03:03.367Z,65.42
2022-09-20T04:06:02.829Z,65.42
2022-09-20T04:09:14.080Z,65.35
2022-09-20T04:12:18.951Z,65.33
2022-09-20T04:15:10.183Z,65.40
2022-09-20T04:17:39.974Z,65.51
2022-09-20T04:20:24.180Z,65.37
2022-09-20T04:22:55.503Z,65.46
2022-09-20T04:25:30.233Z,65.38
2022-09-20T04:28:17.271Z,65.43
2022-09-20T04:30:44.491Z,65.29
2022-09-20T04:33:21.228Z,65.46
2022-09-20T04:36:18.794Z,65.31
2022-09-20T04:38:53.512Z,65.18
2022-09-20T04:41:54.156Z,65.44
2022-09-20T04:44:49.232Z,65.33
2022-09-20T04:47:25.675Z,65.20
2022-09-20T04:50:16.775Z,65.14
2022-09-20T04:53:15.179Z,65.27
2022-09-20T04:55:57.366Z,65.28
2022-09-20T04:58:36.577Z,65.57
2022-09-20T05:01:17.144Z,65.53
2022-09-20T05:03:59.187Z,65.51
2022-09-20T05:07:08.038Z,65.41
2022-09-20T05:09:52.984Z,65.48
2022-09-20T05:12:28.571Z,65.48
2022-09-20T05:15:11.503Z,65.63
2022-09-20T05:17:45.046Z,65.81
2022-09-20T05:20:47.004Z,65.68
2022-09-20T05:24:09.573Z,65.80
2022-09-20T05:26:51.896Z,65.83
2022-09-20T05:29:29.183Z,66.13
2022-09-20T05:32:24.200Z,65.88
2022-09-20T05:35:17.917Z,66.28
2022-09-20T05:37:47.398Z,65.89
2022-09-20T05:40:14.279Z,65.90
2022-09-20T05:43:11.616Z,65.84
2022-09-20T05:46:22.922Z,65.82
2022-09-20T05:49:25.252Z,65.70
2022-09-20T05:52:19.797Z,65.56
2022-09-20T05:54:52.439Z,65.58
2022-09-20T05:58:01.117Z,65.72
2022-09-20T06:00:36.267Z,65.67
2022-09-20T06:03:11.813Z,65.66
2022-09-20T06:06:06.189Z,65.81
2022-09-20T06:08:43.792Z,66.05
2022-09-20T06:11:46.495Z,66.02
2022-09-20T06:14:16.606Z,66.21
2022-09-20T06:16:59.591Z,66.20
2022-09-20T06:19:26.820Z,66.05
2022-09-20T06:22:03.629Z,66.12
2022-09-20T06:24:59.354Z,66.11
2022-09-20T06:27:31.530Z,66.36
2022-09-20T06:30:02.446Z,65.08
2022-09-20T06:32:29.384Z,65.48
2022-09-20T06:34:56.439Z,65.06
2022-09-20T06:38:08.530Z,64.64
2022-09-20T06:41:07.563Z,64.38
2022-09-20T06:43:37.370Z,65.05
2022-09-20T06:46:04.350Z,65.77
2022-09-20T06:48:31.808Z,66.29
2022-09-20T06:50:59.194Z,66.45
2022-09-20T06:53:30.999Z,66.53
2022-09-20T06:55:58.493Z,66.66
2022-09-20T06:58:25.549Z,66.90
2022-09-20T07:00:53.787Z,66.82
2022-09-20T07:03:20.819Z,66.86
2022-09-20T07:05:49.029Z,67.02
2022-09-20T07:08:17.152Z,67.06
2022-09-20T07:10:44.357Z,67.41
2022-09-20T07:13:13.991Z,67.38
2022-09-20T07:15:41.175Z,67.37
2022-09-20T07:18:08.582Z,67.06
2022-09-20T07:20:36.109Z,67.15
2022-09-20T07:23:03.156Z,67.14
2022-09-20T07:25:31.862Z,67.27
2022-09-20T07:27:58.899Z,67.16
2022-09-20T07:30:26.285Z,66.80
2022-09-20T07:32:53.234Z,66.77
2022-09-20T07:35:20.449Z,66.71
2022-09-20T07:37:48.161Z,66.56
2022-09-20T07:40:15.209Z,66.61
2022-09-20T07:42:42.336Z,66.51
2022-09-20T07:45:09.767Z,66.53
2022-09-20T07:47:36.672Z,66.39
2022-09-20T07:50:04.512Z,66.43
2022-09-20T07:52:31.533Z,66.32
2022-09-20T07:54:58.634Z,66.19
2022-09-20T07:57:26.251Z,66.19
2022-09-20T07:59:53.171Z,66.10
2022-09-20T08:02:20.387Z,66.36
2022-09-20T08:04:50.182Z,66.19
2022-09-20T08:07:17.146Z,65.99
2022-09-20T08:09:44.768Z,66.07
2022-09-20T08:15:01.801Z,65.81
2022-09-20T08:17:28.780Z,65.71
2022-09-20T08:19:55.743Z,65.82
2022-09-20T08:22:23.503Z,65.80
2022-09-20T08:24:52.151Z,65.69
2022-09-20T08:27:19.289Z,65.68
2022-09-20T08:29:46.154Z,65.82
2022-09-20T08:32:13.137Z,65.55
2022-09-20T08:34:41.022Z,65.63
2022-09-20T08:37:08.050Z,65.65
2022-09-20T08:40:05.176Z,65.44
2022-09-20T08:42:39.107Z,65.44
2022-09-20T08:45:23.407Z,65.56
2022-09-20T08:48:05.971Z,65.69
2022-09-20T08:50:34.637Z,65.68
2022-09-20T08:53:05.994Z,65.79
2022-09-20T08:55:37.736Z,65.80
2022-09-20T08:58:08.819Z,66.05
2022-09-20T09:00:39.086Z,66.08
2022-09-20T09:03:12.131Z,66.19
2022-09-20T09:05:53.301Z,66.08
2022-09-20T09:08:22.407Z,66.20
2022-09-20T09:10:55.065Z,66.25
2022-09-20T09:13:28.906Z,66.23
2022-09-20T09:16:05.894Z,66.29
2022-09-20T09:18:37.069Z,66.22
2022-09-20T09:21:06.336Z,66.05
2022-09-20T09:23:41.729Z,66.46
2022-09-20T09:26:23.306Z,66.29
2022-09-20T09:29:14.621Z,66.20
2022-09-20T09:31:41.565Z,66.14
2022-09-20T09:34:30.104Z,65.52
2022-09-20T09:36:58.400Z,65.62
2022-09-20T09:39:28.211Z,65.94
2022-09-20T09:41:55.303Z,65.88
2022-09-20T09:44:30.516Z,65.77
2022-09-20T09:46:58.079Z,65.87
2022-09-20T09:49:36.552Z,65.77
2022-09-20T09:52:24.893Z,66.07
2022-09-20T09:54:55.450Z,65.98
2022-09-20T09:57:33.521Z,65.98
2022-09-20T10:00:22.853Z,66.02
2022-09-20T10:03:01.861Z,65.85
2022-09-20T10:05:33.262Z,66.11
2022-09-20T10:08:09.983Z,65.88
2022-09-20T10:10:41.728Z,65.89
2022-09-20T10:13:51.226Z,66.07
2022-09-20T10:16:30.333Z,66.09
2022-09-20T10:19:19.432Z,65.75
2022-09-20T10:22:05.815Z,66.02
2022-09-20T10:24:59.845Z,65.92
2022-09-20T10:27:38.934Z,65.90
2022-09-20T10:30:22.865Z,66.15
2022-09-20T10:33:01.787Z,66.09
2022-09-20T10:35:47.282Z,66.19
2022-09-20T10:38:23.783Z,66.03
2022-09-20T10:41:30.302Z,66.05
2022-09-20T10:44:33.606Z,66.19
2022-09-20T10:47:09.146Z,66.10
2022-09-20T10:49:50.752Z,66.13
2022-09-20T10:52:39.732Z,66.12
2022-09-20T10:55:34.399Z,65.78
2022-09-20T10:58:31.348Z,65.33
2022-09-20T11:01:04.189Z,65.53
2022-09-20T11:03:49.349Z,65.98
2022-09-20T11:06:22.336Z,66.38
2022-09-20T11:08:56.017Z,66.16
2022-09-20T11:11:41.858Z,66.28
2022-09-20T11:14:19.565Z,66.71
2022-09-20T11:17:01.810Z,66.58
2022-09-20T11:19:40.629Z,66.59
2022-09-20T11:22:13.574Z,66.47
2022-09-20T11:24:43.309Z,66.38
2022-09-20T11:27:21.292Z,66.26
2022-09-20T11:30:06.482Z,66.41
2022-09-20T11:32:42.549Z,66.06
2022-09-20T11:35:12.316Z,65.09
2022-09-20T11:37:47.083Z,64.43
2022-09-20T11:40:20.063Z,64.28
2022-09-20T11:42:48.489Z,64.65
2022-09-20T11:45:15.838Z,64.95
2022-09-20T11:47:54.838Z,65.48
2022-09-20T11:50:40.866Z,65.52
2022-09-20T11:53:17.930Z,64.67
2022-09-20T11:56:21.932Z,64.00
2022-09-20T11:58:52.311Z,64.07
2022-09-20T12:01:36.680Z,63.80
2022-09-20T12:04:32.274Z,63.61
2022-09-20T12:07:10.484Z,63.05
2022-09-20T12:09:43.360Z,63.48
2022-09-20T12:12:38.041Z,63.93
2022-09-20T12:15:08.711Z,64.42
2022-09-20T12:17:47.811Z,64.68
2022-09-20T12:20:33.348Z,64.70
2022-09-20T12:23:41.171Z,64.36
2022-09-20T12:26:14.294Z,64.49
2022-09-20T12:28:42.380Z,64.56
2022-09-20T12:31:32.174Z,64.42
2022-09-20T12:34:11.185Z,64.33
2022-09-20T12:36:39.486Z,64.36
2022-09-20T12:39:12.062Z,64.38
2022-09-20T12:41:50.890Z,64.39
2022-09-20T12:44:37.322Z,64.29
2022-09-20T12:47:25.533Z,63.98
2022-09-20T12:50:16.635Z,64.08
2022-09-20T12:53:04.286Z,64.38
2022-09-20T12:55:46.500Z,64.27
2022-09-20T12:58:15.956Z,63.82
2022-09-20T13:00:59.468Z,63.62
2022-09-20T13:03:48.681Z,63.83
2022-09-20T13:06:16.747Z,63.51
2022-09-20T13:08:49.809Z,63.55
2022-09-20T13:11:39.941Z,63.28
2022-09-20T13:14:11.444Z,63.39
2022-09-20T13:16:41.358Z,63.22
2022-09-20T13:19:17.782Z,63.33
2022-09-20T13:21:57.320Z,63.17
2022-09-20T13:24:37.300Z,63.35
2022-09-20T13:27:19.384Z,63.17
2022-09-20T13:29:47.287Z,63.00
2022-09-20T13:32:31.504Z,62.95
2022-09-20T13:35:10.574Z,63.18
2022-09-20T13:37:53.191Z,63.37
2022-09-20T13:40:32.376Z,62.56
2022-09-20T13:43:22.520Z,63.00
2022-09-20T13:45:54.150Z,63.08
2022-09-20T13:48:28.274Z,63.03
2022-09-20T13:50:56.301Z,63.04
2022-09-20T13:53:40.506Z,63.15
2022-09-20T13:56:29.075Z,63.05
2022-09-20T13:58:59.294Z,63.35
2022-09-20T14:01:35.011Z,63.30
2022-09-20T14:04:07.794Z,63.21
2022-09-20T14:06:35.943Z,63.39
2022-09-20T14:09:11.031Z,63.36
2022-09-20T14:11:39.734Z,63.51
2022-09-20T14:14:08.256Z,63.41
2022-09-20T14:16:40.136Z,63.36
2022-09-20T14:19:08.543Z,63.63
2022-09-20T14:21:37.579Z,63.41
2022-09-20T14:24:14.107Z,63.65
2022-09-20T14:26:42.907Z,63.15
2022-09-20T14:29:34.816Z,63.25
2022-09-20T14:32:20.078Z,63.15
2022-09-20T14:34:59.093Z,63.42
2022-09-20T14:37:43.766Z,63.02
2022-09-20T14:40:47.452Z,63.22
2022-09-20T14:43:32.664Z,63.15
2022-09-20T14:46:03.638Z,63.14
2022-09-20T14:48:30.392Z,63.05
2022-09-20T14:51:16.523Z,62.97
2022-09-20T14:53:49.273Z,63.05
2022-09-20T14:56:18.154Z,63.15
2022-09-20T14:59:14.074Z,63.27
2022-09-20T15:01:45.311Z,63.34
2022-09-20T15:04:24.260Z,63.30
2022-09-20T15:06:52.244Z,63.19
2022-09-20T15:09:20.896Z,63.40
2022-09-20T15:11:59.132Z,63.34
2022-09-20T15:14:26.122Z,63.53
2022-09-20T15:16:53.052Z,63.42
2022-09-20T15:19:20.003Z,63.48
2022-09-20T15:21:47.039Z,63.48
2022-09-20T15:24:14.136Z,63.62
2022-09-20T15:26:41.142Z,63.55
2022-09-20T15:29:14.349Z,63.55
2022-09-20T15:31:41.363Z,62.52
2022-09-20T15:34:08.646Z,62.81
2022-09-20T15:36:36.904Z,62.99
2022-09-20T15:39:05.283Z,63.21
2022-09-20T15:41:32.723Z,62.14
2022-09-20T15:43:59.968Z,62.20
2022-09-20T15:46:27.486Z,62.77
2022-09-20T15:48:55.289Z,63.22
2022-09-20T15:51:22.890Z,63.31
2022-09-20T15:54:01.780Z,63.12
2022-09-20T15:56:31.905Z,63.06
2022-09-20T15:59:06.851Z,63.32
2022-09-20T16:01:44.948Z,63.19
2022-09-20T16:04:20.051Z,63.26
2022-09-20T16:06:49.797Z,63.45
2022-09-20T16:09:17.156Z,63.37
2022-09-20T16:11:44.106Z,63.44
2022-09-20T16:14:10.982Z,63.24
2022-09-20T16:16:40.667Z,63.49
2022-09-20T16:19:24.054Z,63.29
2022-09-20T16:21:58.890Z,63.46
2022-09-20T16:24:28.911Z,63.45
2022-09-20T16:26:56.529Z,63.33
2022-09-20T16:29:25.445Z,62.76
2022-09-20T16:31:54.333Z,62.68
2022-09-20T16:34:22.634Z,62.55
2022-09-20T16:36:51.772Z,62.38
2022-09-20T16:39:20.555Z,62.91
2022-09-20T16:41:49.108Z,63.19
2022-09-20T16:44:16.379Z,63.46
2022-09-20T16:46:44.841Z,63.29
2022-09-20T16:49:13.768Z,63.71
2022-09-20T16:51:42.791Z,63.38
2022-09-20T16:54:12.547Z,63.46
2022-09-20T16:56:42.553Z,63.56
2022-09-20T16:59:11.116Z,63.86
2022-09-20T17:01:39.167Z,63.65
2022-09-20T17:04:07.096Z,63.74
2022-09-20T17:06:38.691Z,63.85
2022-09-20T17:09:07.197Z,63.31
2022-09-20T17:11:37.177Z,63.82
2022-09-20T17:14:05.277Z,63.85
2022-09-20T17:16:34.793Z,63.89
2022-09-20T17:19:07.617Z,64.01
2022-09-20T17:21:36.814Z,64.16
2022-09-20T17:24:07.549Z,64.65
2022-09-20T17:26:45.111Z,64.17
2022-09-20T17:29:17.833Z,64.33
2022-09-20T17:31:55.107Z,64.28
2022-09-20T17:34:23.282Z,64.35
2022-09-20T17:36:54.390Z,64.24
2022-09-20T17:39:21.713Z,64.38
2022-09-20T17:41:51.888Z,64.55
2022-09-20T17:44:19.927Z,64.51
2022-09-20T17:46:50.236Z,64.46
2022-09-20T17:49:22.258Z,64.28
2022-09-20T17:51:51.776Z,64.42
2022-09-20T17:54:19.663Z,64.33
2022-09-20T17:56:51.484Z,64.28
2022-09-20T17:59:19.645Z,64.50
2022-09-20T18:01:49.058Z,64.56
2022-09-20T18:04:16.390Z,64.54
2022-09-20T18:06:49.103Z,64.71
2022-09-20T18:09:18.931Z,64.81
2022-09-20T18:11:49.879Z,64.72
2022-09-20T18:14:26.421Z,64.71
2022-09-20T18:17:00.319Z,64.98
2022-09-20T18:19:37.008Z,64.80
2022-09-20T18:22:04.587Z,64.79
2022-09-20T18:24:32.102Z,64.85
2022-09-20T18:27:01.170Z,65.25
2022-09-20T18:29:29.643Z,65.32
2022-09-20T18:31:57.336Z,65.46
2022-09-20T18:34:27.067Z,65.08
2022-09-20T18:36:56.411Z,65.05
2022-09-20T18:39:41.496Z,64.97
2022-09-20T18:42:09.494Z,64.97
2022-09-20T18:44:37.265Z,65.18
2022-09-20T18:47:06.455Z,65.17
2022-09-20T18:49:33.789Z,65.19
2022-09-20T18:52:01.188Z,65.20
2022-09-20T18:54:33.817Z,65.46
2022-09-20T18:57:03.542Z,65.12
2022-09-20T18:59:31.492Z,64.99
2022-09-20T19:02:04.745Z,65.11
2022-09-20T19:05:07.143Z,65.32
2022-09-20T19:07:35.425Z,65.02
2022-09-20T19:10:38.198Z,65.30
2022-09-20T19:13:24.825Z,65.14
2022-09-20T19:16:12.326Z,65.16
2022-09-20T19:19:17.328Z,65.02
2022-09-20T19:21:53.077Z,65.00
2022-09-20T19:24:36.454Z,65.20
2022-09-20T19:27:03.897Z,64.82
2022-09-20T19:29:31.540Z,64.85
2022-09-20T19:32:01.358Z,64.59
2022-09-20T19:34:32.752Z,64.87
2022-09-20T19:37:25.200Z,64.65
2022-09-20T19:40:15.409Z,64.61
2022-09-20T19:43:05.282Z,64.62
2022-09-20T19:45:59.055Z,64.48
2022-09-20T19:48:40.668Z,64.46
2022-09-20T19:51:12.841Z,64.19
2022-09-20T19:53:40.821Z,64.29
2022-09-20T19:56:25.050Z,64.29
2022-09-20T19:58:53.713Z,64.25
2022-09-20T20:01:22.853Z,64.49
2022-09-20T20:03:51.307Z,64.40
2022-09-20T20:06:37.090Z,64.43
2022-09-20T20:09:30.049Z,64.40
2022-09-20T20:12:15.365Z,64.33
2022-09-20T20:15:19.996Z,64.27
2022-09-20T20:18:03.800Z,64.27
2022-09-20T20:20:45.696Z,64.24
2022-09-20T20:23:45.066Z,64.26
2022-09-20T20:26:21.316Z,64.38
2022-09-20T20:28:48.724Z,64.12
2022-09-20T20:31:15.819Z,64.06
2022-09-20T20:33:44.183Z,64.21
2022-09-20T20:36:12.333Z,64.32
2022-09-20T20:38:41.600Z,64.09
2022-09-20T20:41:12.966Z,64.34
2022-09-20T20:43:44.349Z,64.29
2022-09-20T20:46:19.169Z,64.18
2022-09-20T20:48:48.267Z,64.21
2022-09-20T20:51:20.936Z,64.52
2022-09-20T20:53:53.830Z,64.57
2022-09-20T20:56:27.366Z,64.44
2022-09-20T20:58:55.951Z,64.50
2022-09-20T21:01:26.881Z,64.62
2022-09-20T21:03:56.919Z,64.87
2022-09-20T21:06:26.953Z,64.89
2022-09-20T21:08:54.103Z,64.75
2022-09-20T21:11:23.946Z,64.92
2022-09-20T21:13:52.721Z,64.88
2022-09-20T21:16:23.193Z,64.83
2022-09-20T21:18:51.460Z,64.78
2022-09-20T21:21:22.585Z,64.61
2022-09-20T21:23:51.158Z,64.79
2022-09-20T21:26:20.002Z,64.92
2022-09-20T21:28:51.392Z,64.71
2022-09-20T21:31:20.454Z,64.82
2022-09-20T21:33:47.652Z,64.84
2022-09-20T21:36:17.546Z,65.04
2022-09-20T21:38:45.784Z,64.88
2022-09-20T21:41:16.917Z,64.94
2022-09-20T21:43:44.914Z,65.00
2022-09-20T21:46:23.804Z,64.92
2022-09-20T21:48:51.100Z,64.68
2022-09-20T21:51:20.664Z,64.74
2022-09-20T21:53:49.786Z,64.87
2022-09-20T21:56:18.009Z,65.02
2022-09-20T21:58:47.380Z,65.06
2022-09-20T22:01:16.927Z,64.98
2022-09-20T22:03:46.964Z,64.94
2022-09-20T22:06:22.457Z,65.07
2022-09-20T22:09:01.733Z,64.96
2022-09-20T22:11:49.016Z,65.13
2022-09-20T22:14:18.986Z,64.89
2022-09-20T22:16:47.257Z,64.91
2022-09-20T22:19:17.461Z,64.82
2022-09-20T22:21:47.446Z,64.86
2022-09-20T22:24:16.133Z,65.02
2022-09-20T22:26:46.385Z,64.94
2022-09-20T22:29:14.164Z,64.97
2022-09-20T22:31:45.784Z,65.28
2022-09-20T22:34:18.313Z,65.12
2022-09-20T22:36:46.138Z,65.04
2022-09-20T22:39:15.643Z,65.17
2022-09-20T22:41:44.003Z,65.31
2022-09-20T22:44:11.662Z,65.09
2022-09-20T22:46:39.349Z,65.14
2022-09-20T22:49:07.114Z,65.22
2022-09-20T22:51:34.270Z,65.21
2022-09-20T22:54:06.469Z,64.96
2022-09-20T22:56:33.936Z,65.24
2022-09-20T22:59:13.554Z,65.30
2022-09-20T23:01:43.093Z,65.19
2022-09-20T23:04:15.837Z,65.11
2022-09-20T23:06:54.878Z,65.11
2022-09-20T23:09:24.601Z,65.20
2022-09-20T23:11:51.688Z,65.25
2022-09-20T23:14:20.779Z,65.21
2022-09-20T23:16:48.252Z,65.27
2022-09-20T23:19:15.652Z,65.20
2022-09-20T23:21:44.134Z,65.33
2022-09-20T23:24:13.757Z,65.45
2022-09-20T23:26:42.461Z,65.38
2022-09-20T23:29:12.305Z,65.19
2022-09-20T23:31:40.965Z,65.46
2022-09-20T23:34:08.967Z,65.35
2022-09-20T23:36:38.439Z,65.30
2022-09-20T23:39:07.259Z,65.37
2022-09-20T23:41:34.485Z,65.44
2022-09-20T23:44:01.516Z,65.55
2022-09-20T23:46:28.454Z,65.56
2022-09-20T23:48:55.395Z,65.38
2022-09-20T23:51:25.602Z,65.12
2022-09-20T23:53:53.757Z,65.36
2022-09-20T23:56:22.060Z,65.40
2022-09-20T23:58:51.628Z,65.38
